sensor_id;sensor_type;location;lat;lon;timestamp;P1;durP1;ratioP1;P2;durP2;ratioP2
38911;SDS011;28444;48.056;14.408;2022-09-30T00:01:31;11.43;;;7.65;;
38911;SDS011;28444;48.056;14.408;2022-09-30T00:03:59;11.07;;;8.20;;
38911;SDS011;28444;48.056;14.408;2022-09-30T00:06:27;13.57;;;7.78;;
38911;SDS011;28444;48.056;14.408;2022-09-30T00:08:55;12.52;;;8.32;;
38911;SDS011;28444;48.056;14.408;2022-09-30T00:11:27;9.55;;;7.90;;
38911;SDS011;28444;48.056;14.408;2022-09-30T00:13:56;9.63;;;7.18;;
38911;SDS011;28444;48.056;14.408;2022-09-30T00:16:24;11.40;;;8.65;;
38911;SDS011;28444;48.056;14.408;2022-09-30T00:18:54;12.02;;;8.07;;
38911;SDS011;28444;48.056;14.408;2022-09-30T00:21:22;12.10;;;7.82;;
38911;SDS011;28444;48.056;14.408;2022-09-30T00:23:49;9.93;;;7.50;;
38911;SDS011;28444;48.056;14.408;2022-09-30T00:26:17;9.35;;;7.00;;
38911;SDS011;28444;48.056;14.408;2022-09-30T00:28:49;9.93;;;7.57;;
38911;SDS011;28444;48.056;14.408;2022-09-30T00:31:18;12.02;;;8.63;;
38911;SDS011;28444;48.056;14.408;2022-09-30T00:33:47;11.27;;;8.32;;
38911;SDS011;28444;48.056;14.408;2022-09-30T00:36:33;11.77;;;7.82;;
38911;SDS011;28444;48.056;14.408;2022-09-30T00:39:03;10.38;;;7.80;;
38911;SDS011;28444;48.056;14.408;2022-09-30T00:41:31;11.88;;;8.15;;
38911;SDS011;28444;48.056;14.408;2022-09-30T00:43:57;11.25;;;7.70;;
38911;SDS011;28444;48.056;14.408;2022-09-30T00:46:37;10.02;;;7.90;;
38911;SDS011;28444;48.056;14.408;2022-09-30T00:49:15;12.75;;;8.00;;
38911;SDS011;28444;48.056;14.408;2022-09-30T00:51:50;11.82;;;8.13;;
38911;SDS011;28444;48.056;14.408;2022-09-30T00:54:22;11.88;;;8.30;;
38911;SDS011;28444;48.056;14.408;2022-09-30T00:56:54;12.00;;;8.32;;
38911;SDS011;28444;48.056;14.408;2022-09-30T00:59:25;14.23;;;9.18;;
38911;SDS011;28444;48.056;14.408;2022-09-30T01:01:54;11.57;;;9.07;;
38911;SDS011;28444;48.056;14.408;2022-09-30T01:04:21;12.48;;;8.93;;
38911;SDS011;28444;48.056;14.408;2022-09-30T01:06:49;14.15;;;9.27;;
38911;SDS011;28444;48.056;14.408;2022-09-30T01:09:16;13.25;;;9.23;;
38911;SDS011;28444;48.056;14.408;2022-09-30T01:11:45;14.48;;;10.10;;
38911;SDS011;28444;48.056;14.408;2022-09-30T01:14:14;14.90;;;9.68;;
38911;SDS011;28444;48.056;14.408;2022-09-30T01:19:57;12.57;;;9.60;;
38911;SDS011;28444;48.056;14.408;2022-09-30T01:23:04;12.77;;;9.55;;
38911;SDS011;28444;48.056;14.408;2022-09-30T01:29:17;12.20;;;9.30;;
38911;SDS011;28444;48.056;14.408;2022-09-30T01:32:13;11.52;;;8.65;;
38911;SDS011;28444;48.056;14.408;2022-09-30T01:40:39;14.63;;;9.40;;
38911;SDS011;28444;48.056;14.408;2022-09-30T01:43:10;14.57;;;8.82;;
38911;SDS011;28444;48.056;14.408;2022-09-30T01:45:48;13.23;;;8.27;;
38911;SDS011;28444;48.056;14.408;2022-09-30T01:48:39;14.35;;;9.20;;
38911;SDS011;28444;48.056;14.408;2022-09-30T01:51:32;10.60;;;8.52;;
38911;SDS011;28444;48.056;14.408;2022-09-30T01:56:59;8.63;;;7.22;;
38911;SDS011;28444;48.056;14.408;2022-09-30T01:59:43;12.18;;;8.10;;
38911;SDS011;28444;48.056;14.408;2022-09-30T02:02:17;11.27;;;8.25;;
38911;SDS011;28444;48.056;14.408;2022-09-30T02:04:48;10.15;;;7.45;;
38911;SDS011;28444;48.056;14.408;2022-09-30T02:07:24;11.77;;;7.88;;
38911;SDS011;28444;48.056;14.408;2022-09-30T02:10:00;10.30;;;8.27;;
38911;SDS011;28444;48.056;14.408;2022-09-30T02:12:33;9.88;;;7.40;;
38911;SDS011;28444;48.056;14.408;2022-09-30T02:15:11;13.10;;;8.20;;
38911;SDS011;28444;48.056;14.408;2022-09-30T02:17:46;11.38;;;8.25;;
38911;SDS011;28444;48.056;14.408;2022-09-30T02:20:27;9.63;;;7.78;;
38911;SDS011;28444;48.056;14.408;2022-09-30T02:23:08;11.35;;;7.50;;
38911;SDS011;28444;48.056;14.408;2022-09-30T02:25:42;11.68;;;8.00;;
38911;SDS011;28444;48.056;14.408;2022-09-30T02:28:14;10.02;;;8.02;;
38911;SDS011;28444;48.056;14.408;2022-09-30T02:30:46;12.85;;;8.35;;
38911;SDS011;28444;48.056;14.408;2022-09-30T02:33:19;15.65;;;9.30;;
38911;SDS011;28444;48.056;14.408;2022-09-30T02:36:02;14.23;;;8.93;;
38911;SDS011;28444;48.056;14.408;2022-09-30T02:38:35;17.25;;;9.77;;
38911;SDS011;28444;48.056;14.408;2022-09-30T02:41:14;15.65;;;10.23;;
38911;SDS011;28444;48.056;14.408;2022-09-30T02:43:47;15.63;;;9.82;;
38911;SDS011;28444;48.056;14.408;2022-09-30T02:46:25;13.70;;;9.98;;
38911;SDS011;28444;48.056;14.408;2022-09-30T02:49:04;22.73;;;11.57;;
38911;SDS011;28444;48.056;14.408;2022-09-30T02:51:41;14.10;;;10.77;;
38911;SDS011;28444;48.056;14.408;2022-09-30T02:57:54;14.57;;;10.50;;
38911;SDS011;28444;48.056;14.408;2022-09-30T03:00:29;13.02;;;10.23;;
38911;SDS011;28444;48.056;14.408;2022-09-30T03:03:04;12.65;;;10.23;;
38911;SDS011;28444;48.056;14.408;2022-09-30T03:05:35;17.25;;;9.90;;
38911;SDS011;28444;48.056;14.408;2022-09-30T03:08:02;12.93;;;9.30;;
38911;SDS011;28444;48.056;14.408;2022-09-30T03:10:29;15.23;;;9.27;;
38911;SDS011;28444;48.056;14.408;2022-09-30T03:19:40;12.63;;;9.52;;
38911;SDS011;28444;48.056;14.408;2022-09-30T03:22:33;12.60;;;8.93;;
38911;SDS011;28444;48.056;14.408;2022-09-30T03:26:09;10.77;;;8.67;;
38911;SDS011;28444;48.056;14.408;2022-09-30T03:28:33;11.38;;;7.70;;
38911;SDS011;28444;48.056;14.408;2022-09-30T03:31:11;12.45;;;7.85;;
38911;SDS011;28444;48.056;14.408;2022-09-30T03:33:54;10.40;;;7.65;;
38911;SDS011;28444;48.056;14.408;2022-09-30T03:42:09;8.93;;;6.93;;
38911;SDS011;28444;48.056;14.408;2022-09-30T03:44:56;11.10;;;8.50;;
38911;SDS011;28444;48.056;14.408;2022-09-30T03:47:31;9.07;;;7.23;;
38911;SDS011;28444;48.056;14.408;2022-09-30T03:50:02;13.05;;;9.52;;
38911;SDS011;28444;48.056;14.408;2022-09-30T03:52:31;13.00;;;8.73;;
38911;SDS011;28444;48.056;14.408;2022-09-30T03:54:59;12.43;;;9.43;;
38911;SDS011;28444;48.056;14.408;2022-09-30T03:57:29;14.25;;;8.82;;
38911;SDS011;28444;48.056;14.408;2022-09-30T03:59:56;12.20;;;8.70;;
38911;SDS011;28444;48.056;14.408;2022-09-30T04:02:23;15.60;;;9.48;;
38911;SDS011;28444;48.056;14.408;2022-09-30T04:04:51;12.52;;;8.48;;
38911;SDS011;28444;48.056;14.408;2022-09-30T04:07:18;19.00;;;9.55;;
38911;SDS011;28444;48.056;14.408;2022-09-30T04:09:45;13.10;;;10.48;;
38911;SDS011;28444;48.056;14.408;2022-09-30T04:12:11;16.38;;;9.70;;
38911;SDS011;28444;48.056;14.408;2022-09-30T04:14:38;13.60;;;9.68;;
38911;SDS011;28444;48.056;14.408;2022-09-30T04:17:05;16.65;;;8.65;;
38911;SDS011;28444;48.056;14.408;2022-09-30T04:19:32;14.38;;;9.10;;
38911;SDS011;28444;48.056;14.408;2022-09-30T04:22:03;14.75;;;9.88;;
38911;SDS011;28444;48.056;14.408;2022-09-30T04:24:30;13.20;;;8.70;;
38911;SDS011;28444;48.056;14.408;2022-09-30T04:26:56;12.00;;;9.15;;
38911;SDS011;28444;48.056;14.408;2022-09-30T04:29:23;13.13;;;9.57;;
38911;SDS011;28444;48.056;14.408;2022-09-30T04:31:50;16.95;;;9.82;;
38911;SDS011;28444;48.056;14.408;2022-09-30T04:34:16;12.88;;;9.55;;
38911;SDS011;28444;48.056;14.408;2022-09-30T04:36:44;16.50;;;10.10;;
38911;SDS011;28444;48.056;14.408;2022-09-30T04:39:10;14.43;;;10.60;;
38911;SDS011;28444;48.056;14.408;2022-09-30T04:41:37;14.18;;;10.30;;
38911;SDS011;28444;48.056;14.408;2022-09-30T04:44:04;13.35;;;9.80;;
38911;SDS011;28444;48.056;14.408;2022-09-30T04:46:32;20.05;;;10.52;;
38911;SDS011;28444;48.056;14.408;2022-09-30T04:49:02;16.35;;;9.98;;
38911;SDS011;28444;48.056;14.408;2022-09-30T04:51:34;14.27;;;10.10;;
38911;SDS011;28444;48.056;14.408;2022-09-30T04:54:01;12.38;;;10.10;;
38911;SDS011;28444;48.056;14.408;2022-09-30T04:56:28;13.15;;;10.02;;
38911;SDS011;28444;48.056;14.408;2022-09-30T04:58:55;15.55;;;10.75;;
38911;SDS011;28444;48.056;14.408;2022-09-30T05:01:22;18.02;;;11.07;;
38911;SDS011;28444;48.056;14.408;2022-09-30T05:03:49;19.55;;;10.90;;
38911;SDS011;28444;48.056;14.408;2022-09-30T05:06:16;17.30;;;11.20;;
38911;SDS011;28444;48.056;14.408;2022-09-30T05:08:43;18.27;;;11.35;;
38911;SDS011;28444;48.056;14.408;2022-09-30T05:11:18;18.80;;;12.80;;
38911;SDS011;28444;48.056;14.408;2022-09-30T05:13:46;18.85;;;11.05;;
38911;SDS011;28444;48.056;14.408;2022-09-30T05:16:14;18.45;;;11.60;;
38911;SDS011;28444;48.056;14.408;2022-09-30T05:18:42;18.27;;;13.55;;
38911;SDS011;28444;48.056;14.408;2022-09-30T05:21:16;16.45;;;11.60;;
38911;SDS011;28444;48.056;14.408;2022-09-30T05:23:45;16.63;;;11.20;;
38911;SDS011;28444;48.056;14.408;2022-09-30T05:26:13;19.05;;;12.35;;
38911;SDS011;28444;48.056;14.408;2022-09-30T05:28:40;17.30;;;11.80;;
38911;SDS011;28444;48.056;14.408;2022-09-30T05:31:07;21.67;;;12.63;;
38911;SDS011;28444;48.056;14.408;2022-09-30T05:33:34;17.25;;;11.60;;
38911;SDS011;28444;48.056;14.408;2022-09-30T05:36:03;19.50;;;12.10;;
38911;SDS011;28444;48.056;14.408;2022-09-30T05:38:34;18.27;;;11.95;;
38911;SDS011;28444;48.056;14.408;2022-09-30T05:41:08;20.10;;;12.00;;
38911;SDS011;28444;48.056;14.408;2022-09-30T05:43:41;21.58;;;11.75;;
38911;SDS011;28444;48.056;14.408;2022-09-30T05:46:13;16.23;;;10.43;;
38911;SDS011;28444;48.056;14.408;2022-09-30T05:48:41;20.80;;;12.63;;
38911;SDS011;28444;48.056;14.408;2022-09-30T05:51:08;18.77;;;11.80;;
38911;SDS011;28444;48.056;14.408;2022-09-30T05:53:35;18.42;;;12.07;;
38911;SDS011;28444;48.056;14.408;2022-09-30T05:56:04;17.98;;;12.20;;
38911;SDS011;28444;48.056;14.408;2022-09-30T05:58:32;16.80;;;11.73;;
38911;SDS011;28444;48.056;14.408;2022-09-30T06:01:02;14.70;;;11.32;;
38911;SDS011;28444;48.056;14.408;2022-09-30T06:03:39;16.67;;;11.27;;
38911;SDS011;28444;48.056;14.408;2022-09-30T06:06:06;19.40;;;12.77;;
38911;SDS011;28444;48.056;14.408;2022-09-30T06:08:32;17.42;;;12.43;;
38911;SDS011;28444;48.056;14.408;2022-09-30T06:11:00;18.02;;;12.35;;
38911;SDS011;28444;48.056;14.408;2022-09-30T06:13:27;17.10;;;11.82;;
38911;SDS011;28444;48.056;14.408;2022-09-30T06:15:54;19.27;;;13.30;;
38911;SDS011;28444;48.056;14.408;2022-09-30T06:18:23;17.25;;;12.57;;
38911;SDS011;28444;48.056;14.408;2022-09-30T06:20:51;20.52;;;13.10;;
38911;SDS011;28444;48.056;14.408;2022-09-30T06:23:21;17.80;;;12.00;;
38911;SDS011;28444;48.056;14.408;2022-09-30T06:25:51;19.70;;;11.25;;
38911;SDS011;28444;48.056;14.408;2022-09-30T06:28:18;20.23;;;13.23;;
38911;SDS011;28444;48.056;14.408;2022-09-30T06:30:45;20.38;;;12.50;;
38911;SDS011;28444;48.056;14.408;2022-09-30T06:33:12;15.82;;;11.52;;
38911;SDS011;28444;48.056;14.408;2022-09-30T06:35:40;18.10;;;12.20;;
38911;SDS011;28444;48.056;14.408;2022-09-30T06:38:08;21.90;;;12.73;;
38911;SDS011;28444;48.056;14.408;2022-09-30T06:40:35;19.67;;;11.38;;
38911;SDS011;28444;48.056;14.408;2022-09-30T06:43:02;16.95;;;11.90;;
38911;SDS011;28444;48.056;14.408;2022-09-30T06:45:30;17.05;;;10.50;;
38911;SDS011;28444;48.056;14.408;2022-09-30T06:47:59;17.48;;;10.80;;
38911;SDS011;28444;48.056;14.408;2022-09-30T06:50:27;17.27;;;11.68;;
38911;SDS011;28444;48.056;14.408;2022-09-30T06:52:58;18.50;;;11.43;;
38911;SDS011;28444;48.056;14.408;2022-09-30T06:55:26;18.15;;;12.30;;
38911;SDS011;28444;48.056;14.408;2022-09-30T06:57:54;20.10;;;12.70;;
38911;SDS011;28444;48.056;14.408;2022-09-30T07:00:22;17.52;;;11.95;;
38911;SDS011;28444;48.056;14.408;2022-09-30T07:02:49;17.27;;;12.30;;
38911;SDS011;28444;48.056;14.408;2022-09-30T07:05:16;18.92;;;12.57;;
38911;SDS011;28444;48.056;14.408;2022-09-30T07:07:43;16.27;;;11.57;;
38911;SDS011;28444;48.056;14.408;2022-09-30T07:10:09;18.17;;;12.43;;
38911;SDS011;28444;48.056;14.408;2022-09-30T07:12:37;17.70;;;12.73;;
38911;SDS011;28444;48.056;14.408;2022-09-30T07:15:03;19.00;;;12.98;;
38911;SDS011;28444;48.056;14.408;2022-09-30T07:17:35;18.20;;;13.37;;
38911;SDS011;28444;48.056;14.408;2022-09-30T07:20:02;23.50;;;13.05;;
38911;SDS011;28444;48.056;14.408;2022-09-30T07:22:28;22.95;;;14.27;;
38911;SDS011;28444;48.056;14.408;2022-09-30T07:25:00;22.13;;;13.63;;
38911;SDS011;28444;48.056;14.408;2022-09-30T07:27:30;18.15;;;13.02;;
38911;SDS011;28444;48.056;14.408;2022-09-30T07:29:58;21.02;;;13.50;;
38911;SDS011;28444;48.056;14.408;2022-09-30T07:32:45;22.80;;;13.45;;
38911;SDS011;28444;48.056;14.408;2022-09-30T07:35:12;19.58;;;13.60;;
38911;SDS011;28444;48.056;14.408;2022-09-30T07:37:39;18.58;;;13.48;;
38911;SDS011;28444;48.056;14.408;2022-09-30T07:40:06;23.65;;;14.80;;
38911;SDS011;28444;48.056;14.408;2022-09-30T07:42:38;24.25;;;15.00;;
38911;SDS011;28444;48.056;14.408;2022-09-30T07:45:11;24.42;;;14.57;;
38911;SDS011;28444;48.056;14.408;2022-09-30T07:47:42;23.88;;;15.95;;
38911;SDS011;28444;48.056;14.408;2022-09-30T07:50:09;19.75;;;13.60;;
38911;SDS011;28444;48.056;14.408;2022-09-30T07:52:36;22.85;;;14.95;;
38911;SDS011;28444;48.056;14.408;2022-09-30T07:55:02;20.17;;;14.65;;
38911;SDS011;28444;48.056;14.408;2022-09-30T07:57:29;22.95;;;14.65;;
38911;SDS011;28444;48.056;14.408;2022-09-30T07:59:56;22.98;;;16.35;;
38911;SDS011;28444;48.056;14.408;2022-09-30T08:02:23;24.65;;;15.30;;
38911;SDS011;28444;48.056;14.408;2022-09-30T08:04:50;19.13;;;13.20;;
38911;SDS011;28444;48.056;14.408;2022-09-30T08:07:16;20.52;;;14.27;;
38911;SDS011;28444;48.056;14.408;2022-09-30T08:09:44;27.33;;;14.68;;
38911;SDS011;28444;48.056;14.408;2022-09-30T08:12:10;19.00;;;13.52;;
38911;SDS011;28444;48.056;14.408;2022-09-30T08:14:37;20.88;;;14.30;;
38911;SDS011;28444;48.056;14.408;2022-09-30T08:17:04;24.83;;;13.57;;
38911;SDS011;28444;48.056;14.408;2022-09-30T08:19:31;18.70;;;12.63;;
38911;SDS011;28444;48.056;14.408;2022-09-30T08:22:01;21.30;;;14.25;;
38911;SDS011;28444;48.056;14.408;2022-09-30T08:24:33;19.42;;;13.77;;
38911;SDS011;28444;48.056;14.408;2022-09-30T08:27:00;20.85;;;13.80;;
38911;SDS011;28444;48.056;14.408;2022-09-30T08:29:26;31.02;;;17.17;;
38911;SDS011;28444;48.056;14.408;2022-09-30T08:32:13;23.33;;;16.58;;
38911;SDS011;28444;48.056;14.408;2022-09-30T08:34:40;18.23;;;13.50;;
38911;SDS011;28444;48.056;14.408;2022-09-30T08:37:07;16.92;;;13.32;;
38911;SDS011;28444;48.056;14.408;2022-09-30T08:39:36;19.38;;;13.80;;
38911;SDS011;28444;48.056;14.408;2022-09-30T08:42:13;18.33;;;13.20;;
38911;SDS011;28444;48.056;14.408;2022-09-30T08:48:17;17.40;;;12.57;;
38911;SDS011;28444;48.056;14.408;2022-09-30T08:51:38;18.48;;;12.57;;
38911;SDS011;28444;48.056;14.408;2022-09-30T08:53:57;15.73;;;11.27;;
38911;SDS011;28444;48.056;14.408;2022-09-30T08:56:30;15.00;;;11.43;;
38911;SDS011;28444;48.056;14.408;2022-09-30T08:59:24;16.70;;;10.38;;
38911;SDS011;28444;48.056;14.408;2022-09-30T09:02:20;11.93;;;9.85;;
38911;SDS011;28444;48.056;14.408;2022-09-30T09:04:49;15.18;;;9.57;;
38911;SDS011;28444;48.056;14.408;2022-09-30T09:16:27;13.25;;;9.93;;
38911;SDS011;28444;48.056;14.408;2022-09-30T09:24:49;14.00;;;10.85;;
38911;SDS011;28444;48.056;14.408;2022-09-30T09:27:25;16.92;;;11.13;;
38911;SDS011;28444;48.056;14.408;2022-09-30T09:30:09;15.65;;;9.75;;
38911;SDS011;28444;48.056;14.408;2022-09-30T09:32:37;17.30;;;10.00;;
38911;SDS011;28444;48.056;14.408;2022-09-30T09:35:14;10.55;;;8.68;;
38911;SDS011;28444;48.056;14.408;2022-09-30T09:37:59;11.98;;;9.10;;
38911;SDS011;28444;48.056;14.408;2022-09-30T09:41:28;13.23;;;8.38;;
38911;SDS011;28444;48.056;14.408;2022-09-30T09:44:13;12.57;;;8.57;;
38911;SDS011;28444;48.056;14.408;2022-09-30T09:47:14;10.43;;;7.78;;
38911;SDS011;28444;48.056;14.408;2022-09-30T09:49:43;9.38;;;7.60;;
38911;SDS011;28444;48.056;14.408;2022-09-30T09:53:00;12.27;;;7.75;;
38911;SDS011;28444;48.056;14.408;2022-09-30T09:55:22;11.82;;;7.70;;
38911;SDS011;28444;48.056;14.408;2022-09-30T09:58:11;13.07;;;8.88;;
38911;SDS011;28444;48.056;14.408;2022-09-30T10:00:39;11.10;;;7.53;;
38911;SDS011;28444;48.056;14.408;2022-09-30T10:03:34;9.65;;;7.60;;
38911;SDS011;28444;48.056;14.408;2022-09-30T10:06:07;10.38;;;6.95;;
38911;SDS011;28444;48.056;14.408;2022-09-30T10:08:36;9.95;;;7.18;;
38911;SDS011;28444;48.056;14.408;2022-09-30T10:11:05;8.07;;;5.70;;
38911;SDS011;28444;48.056;14.408;2022-09-30T10:13:43;8.73;;;6.80;;
38911;SDS011;28444;48.056;14.408;2022-09-30T10:16:27;9.55;;;8.00;;
38911;SDS011;28444;48.056;14.408;2022-09-30T10:18:57;10.98;;;8.35;;
38911;SDS011;28444;48.056;14.408;2022-09-30T10:21:26;11.90;;;8.50;;
38911;SDS011;28444;48.056;14.408;2022-09-30T10:23:54;10.98;;;8.00;;
38911;SDS011;28444;48.056;14.408;2022-09-30T10:26:23;10.40;;;7.53;;
38911;SDS011;28444;48.056;14.408;2022-09-30T10:28:58;11.13;;;7.93;;
38911;SDS011;28444;48.056;14.408;2022-09-30T10:34:07;12.35;;;7.70;;
38911;SDS011;28444;48.056;14.408;2022-09-30T10:37:07;7.90;;;6.10;;
38911;SDS011;28444;48.056;14.408;2022-09-30T10:39:40;5.43;;;4.57;;
38911;SDS011;28444;48.056;14.408;2022-09-30T10:42:19;6.65;;;5.00;;
38911;SDS011;28444;48.056;14.408;2022-09-30T10:45:02;8.40;;;5.20;;
38911;SDS011;28444;48.056;14.408;2022-09-30T10:47:32;6.25;;;5.22;;
38911;SDS011;28444;48.056;14.408;2022-09-30T10:50:06;7.63;;;4.85;;
38911;SDS011;28444;48.056;14.408;2022-09-30T10:52:35;9.75;;;4.45;;
38911;SDS011;28444;48.056;14.408;2022-09-30T10:55:05;6.28;;;4.57;;
38911;SDS011;28444;48.056;14.408;2022-09-30T10:57:43;5.45;;;4.28;;
38911;SDS011;28444;48.056;14.408;2022-09-30T11:00:13;5.90;;;4.80;;
38911;SDS011;28444;48.056;14.408;2022-09-30T11:03:06;4.93;;;3.75;;
38911;SDS011;28444;48.056;14.408;2022-09-30T11:05:42;5.72;;;4.10;;
38911;SDS011;28444;48.056;14.408;2022-09-30T11:08:16;7.78;;;3.95;;
38911;SDS011;28444;48.056;14.408;2022-09-30T11:10:49;7.60;;;3.95;;
38911;SDS011;28444;48.056;14.408;2022-09-30T11:17:09;4.90;;;4.28;;
38911;SDS011;28444;48.056;14.408;2022-09-30T11:22:35;5.88;;;3.72;;
38911;SDS011;28444;48.056;14.408;2022-09-30T11:25:14;6.93;;;3.55;;
38911;SDS011;28444;48.056;14.408;2022-09-30T11:28:04;5.85;;;4.15;;
38911;SDS011;28444;48.056;14.408;2022-09-30T11:31:01;4.70;;;4.00;;
38911;SDS011;28444;48.056;14.408;2022-09-30T11:37:04;4.00;;;3.53;;
38911;SDS011;28444;48.056;14.408;2022-09-30T11:50:16;3.95;;;2.97;;
38911;SDS011;28444;48.056;14.408;2022-09-30T11:52:18;3.85;;;2.97;;
38911;SDS011;28444;48.056;14.408;2022-09-30T11:55:03;2.80;;;2.38;;
38911;SDS011;28444;48.056;14.408;2022-09-30T11:58:08;2.72;;;2.50;;
38911;SDS011;28444;48.056;14.408;2022-09-30T12:01:11;3.13;;;2.83;;
38911;SDS011;28444;48.056;14.408;2022-09-30T12:03:54;5.57;;;2.58;;
38911;SDS011;28444;48.056;14.408;2022-09-30T12:06:32;5.93;;;3.37;;
38911;SDS011;28444;48.056;14.408;2022-09-30T12:09:03;3.60;;;3.03;;
38911;SDS011;28444;48.056;14.408;2022-09-30T12:11:48;10.98;;;3.45;;
38911;SDS011;28444;48.056;14.408;2022-09-30T12:14:25;3.67;;;2.65;;
38911;SDS011;28444;48.056;14.408;2022-09-30T12:16:59;5.65;;;2.70;;
38911;SDS011;28444;48.056;14.408;2022-09-30T12:19:42;2.50;;;2.30;;
38911;SDS011;28444;48.056;14.408;2022-09-30T12:22:17;4.15;;;2.65;;
38911;SDS011;28444;48.056;14.408;2022-09-30T12:24:53;3.05;;;2.75;;
38911;SDS011;28444;48.056;14.408;2022-09-30T12:27:26;5.07;;;2.65;;
38911;SDS011;28444;48.056;14.408;2022-09-30T12:30:02;2.60;;;2.40;;
38911;SDS011;28444;48.056;14.408;2022-09-30T12:32:58;3.08;;;2.78;;
38911;SDS011;28444;48.056;14.408;2022-09-30T12:38:52;3.58;;;2.80;;
38911;SDS011;28444;48.056;14.408;2022-09-30T12:43:35;3.08;;;2.17;;
38911;SDS011;28444;48.056;14.408;2022-09-30T12:45:20;4.50;;;2.35;;
38911;SDS011;28444;48.056;14.408;2022-09-30T12:48:10;3.38;;;1.98;;
38911;SDS011;28444;48.056;14.408;2022-09-30T12:50:44;2.42;;;2.22;;
38911;SDS011;28444;48.056;14.408;2022-09-30T12:53:20;4.82;;;2.10;;
38911;SDS011;28444;48.056;14.408;2022-09-30T12:55:49;3.00;;;2.40;;
38911;SDS011;28444;48.056;14.408;2022-09-30T12:58:23;3.10;;;2.47;;
38911;SDS011;28444;48.056;14.408;2022-09-30T13:01:00;2.90;;;2.45;;
38911;SDS011;28444;48.056;14.408;2022-09-30T13:13:07;4.47;;;2.13;;
38911;SDS011;28444;48.056;14.408;2022-09-30T13:15:40;3.00;;;2.17;;
38911;SDS011;28444;48.056;14.408;2022-09-30T13:21:21;2.20;;;2.00;;
38911;SDS011;28444;48.056;14.408;2022-09-30T13:23:49;2.90;;;2.40;;
38911;SDS011;28444;48.056;14.408;2022-09-30T13:29:33;4.07;;;2.80;;
38911;SDS011;28444;48.056;14.408;2022-09-30T13:32:01;6.18;;;3.00;;
38911;SDS011;28444;48.056;14.408;2022-09-30T13:34:31;2.95;;;1.92;;
38911;SDS011;28444;48.056;14.408;2022-09-30T13:37:30;4.50;;;2.30;;
38911;SDS011;28444;48.056;14.408;2022-09-30T13:40:01;2.63;;;2.13;;
38911;SDS011;28444;48.056;14.408;2022-09-30T13:42:32;6.25;;;2.30;;
38911;SDS011;28444;48.056;14.408;2022-09-30T13:45:10;2.85;;;2.65;;
38911;SDS011;28444;48.056;14.408;2022-09-30T13:47:47;3.83;;;2.85;;
38911;SDS011;28444;48.056;14.408;2022-09-30T13:50:36;3.58;;;2.63;;
38911;SDS011;28444;48.056;14.408;2022-09-30T13:53:15;2.97;;;2.13;;
38911;SDS011;28444;48.056;14.408;2022-09-30T13:55:47;4.22;;;2.63;;
38911;SDS011;28444;48.056;14.408;2022-09-30T14:10:25;5.00;;;2.40;;
38911;SDS011;28444;48.056;14.408;2022-09-30T14:19:37;3.08;;;2.33;;
38911;SDS011;28444;48.056;14.408;2022-09-30T14:22:18;2.88;;;2.25;;
38911;SDS011;28444;48.056;14.408;2022-09-30T14:24:46;3.30;;;2.70;;
38911;SDS011;28444;48.056;14.408;2022-09-30T14:27:25;4.03;;;2.85;;
38911;SDS011;28444;48.056;14.408;2022-09-30T14:30:15;5.63;;;2.85;;
38911;SDS011;28444;48.056;14.408;2022-09-30T14:32:54;5.20;;;3.03;;
38911;SDS011;28444;48.056;14.408;2022-09-30T14:35:27;4.40;;;3.03;;
38911;SDS011;28444;48.056;14.408;2022-09-30T14:40:52;4.28;;;3.08;;
38911;SDS011;28444;48.056;14.408;2022-09-30T14:43:23;6.10;;;2.78;;
38911;SDS011;28444;48.056;14.408;2022-09-30T14:49:12;4.60;;;3.28;;
38911;SDS011;28444;48.056;14.408;2022-09-30T14:51:43;2.67;;;2.47;;
38911;SDS011;28444;48.056;14.408;2022-09-30T14:54:19;3.70;;;3.10;;
38911;SDS011;28444;48.056;14.408;2022-09-30T14:56:51;3.65;;;3.10;;
38911;SDS011;28444;48.056;14.408;2022-09-30T14:59:22;6.32;;;3.40;;
38911;SDS011;28444;48.056;14.408;2022-09-30T15:01:54;4.97;;;3.60;;
38911;SDS011;28444;48.056;14.408;2022-09-30T15:04:29;6.30;;;3.33;;
38911;SDS011;28444;48.056;14.408;2022-09-30T15:06:59;7.10;;;3.63;;
38911;SDS011;28444;48.056;14.408;2022-09-30T15:09:32;4.53;;;3.08;;
38911;SDS011;28444;48.056;14.408;2022-09-30T15:12:02;8.13;;;4.47;;
38911;SDS011;28444;48.056;14.408;2022-09-30T15:14:30;5.28;;;4.40;;
38911;SDS011;28444;48.056;14.408;2022-09-30T15:17:00;6.18;;;4.35;;
38911;SDS011;28444;48.056;14.408;2022-09-30T15:19:32;6.25;;;4.35;;
38911;SDS011;28444;48.056;14.408;2022-09-30T15:22:00;5.40;;;3.97;;
38911;SDS011;28444;48.056;14.408;2022-09-30T15:24:30;4.45;;;3.47;;
38911;SDS011;28444;48.056;14.408;2022-09-30T15:26:59;8.45;;;3.50;;
38911;SDS011;28444;48.056;14.408;2022-09-30T15:29:26;4.78;;;3.67;;
38911;SDS011;28444;48.056;14.408;2022-09-30T15:32:13;5.30;;;3.53;;
38911;SDS011;28444;48.056;14.408;2022-09-30T15:34:43;11.52;;;3.75;;
38911;SDS011;28444;48.056;14.408;2022-09-30T15:37:20;3.47;;;3.17;;
38911;SDS011;28444;48.056;14.408;2022-09-30T15:39:49;6.30;;;3.92;;
38911;SDS011;28444;48.056;14.408;2022-09-30T15:42:39;7.07;;;3.60;;
38911;SDS011;28444;48.056;14.408;2022-09-30T15:47:59;4.57;;;3.70;;
38911;SDS011;28444;48.056;14.408;2022-09-30T15:50:37;11.25;;;4.10;;
38911;SDS011;28444;48.056;14.408;2022-09-30T15:53:18;5.20;;;3.63;;
38911;SDS011;28444;48.056;14.408;2022-09-30T15:55:51;4.78;;;3.55;;
38911;SDS011;28444;48.056;14.408;2022-09-30T15:58:39;4.55;;;3.88;;
38911;SDS011;28444;48.056;14.408;2022-09-30T16:01:25;5.30;;;3.67;;
38911;SDS011;28444;48.056;14.408;2022-09-30T16:04:00;7.50;;;3.53;;
38911;SDS011;28444;48.056;14.408;2022-09-30T16:06:53;5.63;;;3.67;;
38911;SDS011;28444;48.056;14.408;2022-09-30T16:12:06;6.32;;;3.65;;
38911;SDS011;28444;48.056;14.408;2022-09-30T16:17:36;13.48;;;4.68;;
38911;SDS011;28444;48.056;14.408;2022-09-30T16:22:51;9.50;;;7.03;;
38911;SDS011;28444;48.056;14.408;2022-09-30T16:25:27;10.52;;;5.40;;
38911;SDS011;28444;48.056;14.408;2022-09-30T16:30:28;10.10;;;5.05;;
38911;SDS011;28444;48.056;14.408;2022-09-30T16:32:57;6.20;;;4.93;;
38911;SDS011;28444;48.056;14.408;2022-09-30T16:35:29;5.53;;;4.25;;
38911;SDS011;28444;48.056;14.408;2022-09-30T16:37:57;8.95;;;4.55;;
38911;SDS011;28444;48.056;14.408;2022-09-30T16:40:26;9.25;;;4.65;;
38911;SDS011;28444;48.056;14.408;2022-09-30T16:42:54;7.75;;;4.20;;
38911;SDS011;28444;48.056;14.408;2022-09-30T16:45:21;5.65;;;4.32;;
38911;SDS011;28444;48.056;14.408;2022-09-30T16:47:48;7.35;;;4.40;;
38911;SDS011;28444;48.056;14.408;2022-09-30T16:50:32;6.82;;;4.40;;
38911;SDS011;28444;48.056;14.408;2022-09-30T16:53:04;6.40;;;3.88;;
38911;SDS011;28444;48.056;14.408;2022-09-30T16:55:30;7.32;;;4.60;;
38911;SDS011;28444;48.056;14.408;2022-09-30T16:57:57;9.93;;;4.55;;
38911;SDS011;28444;48.056;14.408;2022-09-30T17:00:25;6.78;;;4.85;;
38911;SDS011;28444;48.056;14.408;2022-09-30T17:02:53;8.98;;;6.93;;
38911;SDS011;28444;48.056;14.408;2022-09-30T17:05:21;11.50;;;6.32;;
38911;SDS011;28444;48.056;14.408;2022-09-30T17:07:53;13.48;;;7.15;;
38911;SDS011;28444;48.056;14.408;2022-09-30T17:10:30;11.27;;;6.53;;